sensor_id;sensor_type;location;lat;lon;timestamp;pressure;altitude;pressure_sealevel;temperature;humidity
31357;BME280;60001;48.404;11.738;2024-02-21T00:00:45;97254.09;;;5.39;75.55
31357;BME280;60001;48.404;11.738;2024-02-21T00:02:17;97279.91;;;5.49;75.13
31357;BME280;60001;48.404;11.738;2024-02-21T00:03:48;97276.69;;;5.47;75.74
31357;BME280;60001;48.404;11.738;2024-02-21T00:05:19;97278.69;;;5.38;75.88
31357;BME280;60001;48.404;11.738;2024-02-21T00:06:50;97282.53;;;5.49;75.25
31357;BME280;60001;48.404;11.738;2024-02-21T00:08:22;97276.69;;;5.47;75.63
31357;BME280;60001;48.404;11.738;2024-02-21T00:09:53;97274.69;;;5.49;74.96
31357;BME280;60001;48.404;11.738;2024-02-21T00:11:25;97279.91;;;5.49;75.52
31357;BME280;60001;48.404;11.738;2024-02-21T00:12:57;97274.31;;;5.52;74.90
31357;BME280;60001;48.404;11.738;2024-02-21T00:14:29;97272.91;;;5.49;75.34
31357;BME280;60001;48.404;11.738;2024-02-21T00:16:00;97276.13;;;5.52;75.59
31357;BME280;60001;48.404;11.738;2024-02-21T00:17:32;97263.25;;;5.57;74.80
31357;BME280;60001;48.404;11.738;2024-02-21T00:19:03;97267.66;;;5.56;75.41
31357;BME280;60001;48.404;11.738;2024-02-21T00:20:35;97262.19;;;5.44;75.92
31357;BME280;60001;48.404;11.738;2024-02-21T00:22:06;97256.94;;;5.44;76.76
31357;BME280;60001;48.404;11.738;2024-02-21T00:23:38;97267.84;;;5.48;76.64
31357;BME280;60001;48.404;11.738;2024-02-21T00:25:09;97256.72;;;5.39;76.54
31357;BME280;60001;48.404;11.738;2024-02-21T00:26:41;97258.97;;;5.49;76.12
31357;BME280;60001;48.404;11.738;2024-02-21T00:28:13;97258.59;;;5.52;76.42
31357;BME280;60001;48.404;11.738;2024-02-21T00:29:45;97260.81;;;5.55;76.73
31357;BME280;60001;48.404;11.738;2024-02-21T00:31:16;97253.72;;;5.49;76.26
31357;BME280;60001;48.404;11.738;2024-02-21T00:32:47;97255.78;;;5.54;75.98
31357;BME280;60001;48.404;11.738;2024-02-21T00:34:18;97252.13;;;5.48;76.05
31357;BME280;60001;48.404;11.738;2024-02-21T00:35:50;97255.59;;;5.62;75.33
31357;BME280;60001;48.404;11.738;2024-02-21T00:37:21;97255.78;;;5.60;75.82
31357;BME280;60001;48.404;11.738;2024-02-21T00:38:53;97247.91;;;5.54;76.05
31357;BME280;60001;48.404;11.738;2024-02-21T00:40:23;97249.53;;;5.61;75.85
31357;BME280;60001;48.404;11.738;2024-02-21T00:41:55;97248.56;;;5.69;74.94
31357;BME280;60001;48.404;11.738;2024-02-21T00:43:27;97243.31;;;5.69;74.50
31357;BME280;60001;48.404;11.738;2024-02-21T00:44:59;97241.09;;;5.66;74.41
31357;BME280;60001;48.404;11.738;2024-02-21T00:46:30;97238.53;;;5.79;73.44
31357;BME280;60001;48.404;11.738;2024-02-21T00:48:02;97238.91;;;5.76;73.12
31357;BME280;60001;48.404;11.738;2024-02-21T00:49:33;97233.88;;;5.74;73.42
31357;BME280;60001;48.404;11.738;2024-02-21T00:51:05;97238.50;;;5.72;74.29
31357;BME280;60001;48.404;11.738;2024-02-21T00:52:36;97232.03;;;5.68;73.55
31357;BME280;60001;48.404;11.738;2024-02-21T00:54:08;97239.28;;;5.60;74.01
31357;BME280;60001;48.404;11.738;2024-02-21T00:55:40;97235.25;;;5.64;73.62
31357;BME280;60001;48.404;11.738;2024-02-21T00:57:13;97235.88;;;5.72;72.73
31357;BME280;60001;48.404;11.738;2024-02-21T00:58:45;97232.66;;;5.64;73.75
31357;BME280;60001;48.404;11.738;2024-02-21T01:00:18;97232.44;;;5.65;74.01
31357;BME280;60001;48.404;11.738;2024-02-21T01:01:49;97242.50;;;5.68;73.23
31357;BME280;60001;48.404;11.738;2024-02-21T01:03:20;97242.50;;;5.62;73.72
31357;BME280;60001;48.404;11.738;2024-02-21T01:04:51;97234.88;;;5.73;72.64
31357;BME280;60001;48.404;11.738;2024-02-21T01:06:23;97234.88;;;5.73;72.76
31357;BME280;60001;48.404;11.738;2024-02-21T01:07:54;97229.44;;;5.82;72.21
31357;BME280;60001;48.404;11.738;2024-02-21T01:09:26;97232.47;;;5.72;72.85
31357;BME280;60001;48.404;11.738;2024-02-21T01:10:57;97232.44;;;5.65;73.41
31357;BME280;60001;48.404;11.738;2024-02-21T01:12:28;97220.94;;;5.60;73.60
31357;BME280;60001;48.404;11.738;2024-02-21T01:14:00;97229.03;;;5.71;72.68
31357;BME280;60001;48.404;11.738;2024-02-21T01:15:33;97194.66;;;5.40;73.31
31357;BME280;60001;48.404;11.738;2024-02-21T01:17:04;97228.38;;;5.56;73.52
31357;BME280;60001;48.404;11.738;2024-02-21T01:18:38;97224.34;;;5.60;73.31
31357;BME280;60001;48.404;11.738;2024-02-21T01:20:10;97223.13;;;5.56;73.86
31357;BME280;60001;48.404;11.738;2024-02-21T01:21:42;97217.47;;;5.46;74.09
31357;BME280;60001;48.404;11.738;2024-02-21T01:23:13;97225.13;;;5.54;73.50
31357;BME280;60001;48.404;11.738;2024-02-21T01:24:45;97216.94;;;5.64;72.93
31357;BME280;60001;48.404;11.738;2024-02-21T01:26:16;97219.56;;;5.84;71.76
31357;BME280;60001;48.404;11.738;2024-02-21T01:27:48;97210.09;;;5.89;71.23
31357;BME280;60001;48.404;11.738;2024-02-21T01:29:21;97221.59;;;5.82;71.39
31357;BME280;60001;48.404;11.738;2024-02-21T01:30:52;97211.88;;;5.69;72.25
31357;BME280;60001;48.404;11.738;2024-02-21T01:32:23;97211.47;;;5.65;72.84
31357;BME280;60001;48.404;11.738;2024-02-21T01:33:55;97199.78;;;5.68;72.28
31357;BME280;60001;48.404;11.738;2024-02-21T01:35:26;97199.53;;;5.56;72.98
31357;BME280;60001;48.404;11.738;2024-02-21T01:36:58;97208.06;;;5.65;72.50
31357;BME280;60001;48.404;11.738;2024-02-21T01:38:29;97201.78;;;5.59;72.77
31357;BME280;60001;48.404;11.738;2024-02-21T01:40:02;97204.59;;;5.51;73.47
31357;BME280;60001;48.404;11.738;2024-02-21T01:41:33;97200.56;;;5.55;72.87
31357;BME280;60001;48.404;11.738;2024-02-21T01:43:15;97199.34;;;5.51;73.63
31357;BME280;60001;48.404;11.738;2024-02-21T01:44:47;97192.88;;;5.47;74.72
31357;BME280;60001;48.404;11.738;2024-02-21T01:46:19;97192.91;;;5.54;73.31
31357;BME280;60001;48.404;11.738;2024-02-21T01:47:50;97191.69;;;5.43;73.77
31357;BME280;60001;48.404;11.738;2024-02-21T01:49:22;97185.63;;;5.49;73.58
31357;BME280;60001;48.404;11.738;2024-02-21T01:50:54;97184.47;;;5.58;72.83
31357;BME280;60001;48.404;11.738;2024-02-21T01:52:28;97188.47;;;5.61;72.18
31357;BME280;60001;48.404;11.738;2024-02-21T01:53:59;97182.84;;;5.57;72.83
31357;BME280;60001;48.404;11.738;2024-02-21T01:55:32;97181.63;;;5.53;73.11
31357;BME280;60001;48.404;11.738;2024-02-21T01:57:03;97180.22;;;5.50;73.46
31357;BME280;60001;48.404;11.738;2024-02-21T01:58:37;97178.78;;;5.48;74.40
31357;BME280;60001;48.404;11.738;2024-02-21T02:00:15;97173.53;;;5.48;74.04
31357;BME280;60001;48.404;11.738;2024-02-21T02:01:47;97167.91;;;5.44;74.88
31357;BME280;60001;48.404;11.738;2024-02-21T02:03:18;97167.91;;;5.51;74.57
31357;BME280;60001;48.404;11.738;2024-02-21T02:04:50;97169.53;;;5.52;74.33
31357;BME280;60001;48.404;11.738;2024-02-21T02:06:23;97162.88;;;5.56;73.14
31357;BME280;60001;48.404;11.738;2024-02-21T02:07:55;97155.19;;;5.41;73.83
31357;BME280;60001;48.404;11.738;2024-02-21T02:09:26;97131.41;;;5.30;74.14
31357;BME280;60001;48.404;11.738;2024-02-21T02:10:58;97131.22;;;5.38;74.30
31357;BME280;60001;48.404;11.738;2024-02-21T02:12:30;97160.66;;;5.53;74.02
31357;BME280;60001;48.404;11.738;2024-02-21T02:14:02;97157.03;;;5.54;73.93
31357;BME280;60001;48.404;11.738;2024-02-21T02:15:43;97152.38;;;5.43;75.19
31357;BME280;60001;48.404;11.738;2024-02-21T02:17:14;97151.78;;;5.47;74.58
31357;BME280;60001;48.404;11.738;2024-02-21T02:18:47;97146.16;;;5.50;74.63
31357;BME280;60001;48.404;11.738;2024-02-21T02:20:18;97141.72;;;5.44;74.73
31357;BME280;60001;48.404;11.738;2024-02-21T02:21:51;97138.88;;;5.46;75.15
31357;BME280;60001;48.404;11.738;2024-02-21T02:23:29;97135.84;;;5.49;74.47
31357;BME280;60001;48.404;11.738;2024-02-21T02:25:02;97132.81;;;5.39;75.58
31357;BME280;60001;48.404;11.738;2024-02-21T02:26:34;97131.44;;;5.43;74.84
31357;BME280;60001;48.404;11.738;2024-02-21T02:28:07;97126.56;;;5.40;74.64
31357;BME280;60001;48.404;11.738;2024-02-21T02:29:38;97135.22;;;5.34;74.13
31357;BME280;60001;48.404;11.738;2024-02-21T02:31:10;97130.81;;;5.47;73.86
31357;BME280;60001;48.404;11.738;2024-02-21T02:32:44;97129.41;;;5.45;73.05
31357;BME280;60001;48.404;11.738;2024-02-21T02:34:16;97123.75;;;5.41;74.08
31357;BME280;60001;48.404;11.738;2024-02-21T02:35:47;97129.41;;;5.38;73.94
31357;BME280;60001;48.404;11.738;2024-02-21T02:37:19;97122.16;;;5.47;73.93
31357;BME280;60001;48.404;11.738;2024-02-21T02:38:51;97126.38;;;5.41;74.54
31357;BME280;60001;48.404;11.738;2024-02-21T02:40:23;97123.97;;;5.40;74.31
31357;BME280;60001;48.404;11.738;2024-02-21T02:41:54;97124.75;;;5.40;74.60
31357;BME280;60001;48.404;11.738;2024-02-21T02:43:26;97122.56;;;5.44;74.46
31357;BME280;60001;48.404;11.738;2024-02-21T02:44:57;97116.94;;;5.60;72.92
31357;BME280;60001;48.404;11.738;2024-02-21T02:46:28;97110.09;;;5.53;73.25
31357;BME280;60001;48.404;11.738;2024-02-21T02:48:00;97113.69;;;5.45;73.69
31357;BME280;60001;48.404;11.738;2024-02-21T02:49:32;97114.28;;;5.40;74.60
31357;BME280;60001;48.404;11.738;2024-02-21T02:51:03;97112.88;;;5.31;74.82
31357;BME280;60001;48.404;11.738;2024-02-21T02:52:35;97106.03;;;5.37;75.16
31357;BME280;60001;48.404;11.738;2024-02-21T02:54:07;97104.84;;;5.46;75.19
31357;BME280;60001;48.404;11.738;2024-02-21T02:55:39;97109.47;;;5.37;74.98
31357;BME280;60001;48.404;11.738;2024-02-21T02:57:10;97106.84;;;5.37;75.49
31357;BME280;60001;48.404;11.738;2024-02-21T02:58:42;97107.44;;;5.33;75.50
31357;BME280;60001;48.404;11.738;2024-02-21T03:00:14;97103.78;;;5.34;76.06
31357;BME280;60001;48.404;11.738;2024-02-21T03:01:46;97104.59;;;5.28;76.01
31357;BME280;60001;48.404;11.738;2024-02-21T03:03:17;97098.19;;;5.37;75.49
31357;BME280;60001;48.404;11.738;2024-02-21T03:04:49;97092.31;;;5.35;74.65
31357;BME280;60001;48.404;11.738;2024-02-21T03:06:19;97096.94;;;5.33;75.55
31357;BME280;60001;48.404;11.738;2024-02-21T03:07:51;97101.38;;;5.32;75.45
31357;BME280;60001;48.404;11.738;2024-02-21T03:09:24;97100.81;;;5.37;75.76
31357;BME280;60001;48.404;11.738;2024-02-21T03:10:55;97106.03;;;5.30;76.26
31357;BME280;60001;48.404;11.738;2024-02-21T03:12:27;97099.19;;;5.36;75.81
31357;BME280;60001;48.404;11.738;2024-02-21T03:13:59;97095.53;;;5.30;75.50
31357;BME280;60001;48.404;11.738;2024-02-21T03:15:31;97099.78;;;5.38;76.10
31357;BME280;60001;48.404;11.738;2024-02-21T03:17:02;97104.81;;;5.39;76.17
31357;BME280;60001;48.404;11.738;2024-02-21T03:18:35;97100.00;;;5.36;75.83
31357;BME280;60001;48.404;11.738;2024-02-21T03:20:07;97100.38;;;5.40;76.13
31357;BME280;60001;48.404;11.738;2024-02-21T03:21:40;97111.66;;;5.34;76.55
31357;BME280;60001;48.404;11.738;2024-02-21T03:23:11;97106.00;;;5.23;76.85
31357;BME280;60001;48.404;11.738;2024-02-21T03:24:44;97100.16;;;5.28;76.33
31357;BME280;60001;48.404;11.738;2024-02-21T03:26:15;97101.59;;;5.31;76.04
31357;BME280;60001;48.404;11.738;2024-02-21T03:27:47;97108.44;;;5.32;76.89
31357;BME280;60001;48.404;11.738;2024-02-21T03:29:18;97105.00;;;5.31;77.14
31357;BME280;60001;48.404;11.738;2024-02-21T03:30:50;97106.41;;;5.34;77.28
31357;BME280;60001;48.404;11.738;2024-02-21T03:32:21;97088.84;;;5.21;77.52
31357;BME280;60001;48.404;11.738;2024-02-21T03:33:53;97106.81;;;5.31;76.83
31357;BME280;60001;48.404;11.738;2024-02-21T03:35:24;97106.22;;;5.29;77.01
31357;BME280;60001;48.404;11.738;2024-02-21T03:36:57;97109.44;;;5.31;77.13
31357;BME280;60001;48.404;11.738;2024-02-21T03:38:28;97103.19;;;5.32;77.19
31357;BME280;60001;48.404;11.738;2024-02-21T03:40:02;97106.63;;;5.32;76.99
31357;BME280;60001;48.404;11.738;2024-02-21T03:41:33;97106.41;;;5.34;76.71
31357;BME280;60001;48.404;11.738;2024-02-21T03:43:05;97103.78;;;5.34;76.29
31357;BME280;60001;48.404;11.738;2024-02-21T03:44:37;97105.81;;;5.32;77.11
31357;BME280;60001;48.404;11.738;2024-02-21T03:46:08;97089.47;;;5.16;77.08
31357;BME280;60001;48.404;11.738;2024-02-21T03:47:40;97085.25;;;5.22;77.92
31357;BME280;60001;48.404;11.738;2024-02-21T03:49:11;97095.94;;;5.27;76.84
31357;BME280;60001;48.404;11.738;2024-02-21T03:50:43;97090.09;;;5.25;76.80
31357;BME280;60001;48.404;11.738;2024-02-21T03:52:14;97087.47;;;5.25;77.02
31357;BME280;60001;48.404;11.738;2024-02-21T03:53:46;97087.06;;;5.21;76.91
31357;BME280;60001;48.404;11.738;2024-02-21T03:55:18;97087.06;;;5.21;77.08
31357;BME280;60001;48.404;11.738;2024-02-21T03:56:50;97086.25;;;5.28;76.54
31357;BME280;60001;48.404;11.738;2024-02-21T03:58:21;97083.25;;;5.24;76.71
31357;BME280;60001;48.404;11.738;2024-02-21T03:59:53;97088.06;;;5.27;77.12
31357;BME280;60001;48.404;11.738;2024-02-21T04:01:24;97085.06;;;5.30;76.76
31357;BME280;60001;48.404;11.738;2024-02-21T04:02:56;97082.41;;;5.17;77.32
31357;BME280;60001;48.404;11.738;2024-02-21T04:04:28;97090.47;;;5.15;77.13
31357;BME280;60001;48.404;11.738;2024-02-21T04:05:58;97084.63;;;5.13;78.02
31357;BME280;60001;48.404;11.738;2024-02-21T04:07:30;97075.16;;;5.12;77.72
31357;BME280;60001;48.404;11.738;2024-02-21T04:09:02;97075.16;;;5.12;77.79
31357;BME280;60001;48.404;11.738;2024-02-21T04:10:35;97071.50;;;5.07;78.02
31357;BME280;60001;48.404;11.738;2024-02-21T04:12:08;97074.94;;;5.14;77.83
31357;BME280;60001;48.404;11.738;2024-02-21T04:13:39;97078.19;;;5.16;77.90
31357;BME280;60001;48.404;11.738;2024-02-21T04:15:11;97074.38;;;5.18;77.87
31357;BME280;60001;48.404;11.738;2024-02-21T04:16:43;97080.81;;;5.16;77.86
31357;BME280;60001;48.404;11.738;2024-02-21T04:18:14;97078.56;;;5.13;78.37
31357;BME280;60001;48.404;11.738;2024-02-21T04:19:46;97072.75;;;5.17;78.39
31357;BME280;60001;48.404;11.738;2024-02-21T04:21:17;97070.13;;;5.17;78.05
31357;BME280;60001;48.404;11.738;2024-02-21T04:22:49;97071.53;;;5.20;77.68
31357;BME280;60001;48.404;11.738;2024-02-21T04:24:19;97073.34;;;5.19;77.54
31357;BME280;60001;48.404;11.738;2024-02-21T04:25:53;97069.56;;;5.22;78.17
31357;BME280;60001;48.404;11.738;2024-02-21T04:27:23;97066.72;;;5.17;78.30
31357;BME280;60001;48.404;11.738;2024-02-21T04:28:55;97063.50;;;5.21;77.49
31357;BME280;60001;48.404;11.738;2024-02-21T04:30:26;97066.31;;;5.27;78.41
31357;BME280;60001;48.404;11.738;2024-02-21T04:31:58;97061.47;;;5.17;78.25
31357;BME280;60001;48.404;11.738;2024-02-21T04:33:30;97038.69;;;5.04;78.63
31357;BME280;60001;48.404;11.738;2024-02-21T04:35:01;97057.84;;;5.18;78.53
31357;BME280;60001;48.404;11.738;2024-02-21T04:36:35;97062.69;;;5.21;78.31
31357;BME280;60001;48.404;11.738;2024-02-21T04:38:07;97055.84;;;5.27;77.89
31357;BME280;60001;48.404;11.738;2024-02-21T04:39:38;97050.22;;;5.23;77.40
31357;BME280;60001;48.404;11.738;2024-02-21T04:41:11;97052.44;;;5.26;77.59
31357;BME280;60001;48.404;11.738;2024-02-21T04:42:42;97032.88;;;5.15;77.54
31357;BME280;60001;48.404;11.738;2024-02-21T04:44:14;97047.59;;;5.23;77.90
31357;BME280;60001;48.404;11.738;2024-02-21T04:45:46;97039.94;;;5.21;77.04
31357;BME280;60001;48.404;11.738;2024-02-21T04:47:18;97036.69;;;5.19;77.30
31357;BME280;60001;48.404;11.738;2024-02-21T04:48:50;97037.94;;;5.23;77.04
31357;BME280;60001;48.404;11.738;2024-02-21T04:50:21;97024.03;;;5.16;77.21
31357;BME280;60001;48.404;11.738;2024-02-21T04:51:52;97028.47;;;5.22;76.98
31357;BME280;60001;48.404;11.738;2024-02-21T04:53:24;97023.81;;;5.18;77.21
31357;BME280;60001;48.404;11.738;2024-02-21T04:54:55;97024.22;;;5.15;77.53
31357;BME280;60001;48.404;11.738;2024-02-21T04:56:28;97019.16;;;5.13;77.36
31357;BME280;60001;48.404;11.738;2024-02-21T04:57:59;97012.75;;;5.09;77.79
31357;BME280;60001;48.404;11.738;2024-02-21T04:59:32;97010.69;;;5.05;78.12
31357;BME280;60001;48.404;11.738;2024-02-21T05:01:05;97006.06;;;5.00;78.46
31357;BME280;60001;48.404;11.738;2024-02-21T05:02:38;97007.50;;;5.03;78.79
31357;BME280;60001;48.404;11.738;2024-02-21T05:04:09;97007.28;;;5.04;78.46
31357;BME280;60001;48.404;11.738;2024-02-21T05:05:40;97011.13;;;5.02;78.10
31357;BME280;60001;48.404;11.738;2024-02-21T05:07:11;97001.44;;;4.95;78.30
31357;BME280;60001;48.404;11.738;2024-02-21T05:08:43;97002.25;;;4.96;78.61
31357;BME280;60001;48.404;11.738;2024-02-21T05:10:15;96998.22;;;5.00;78.38
31357;BME280;60001;48.404;11.738;2024-02-21T05:11:47;96978.66;;;4.83;78.30
31357;BME280;60001;48.404;11.738;2024-02-21T05:13:19;97001.22;;;4.97;78.42
31357;BME280;60001;48.404;11.738;2024-02-21T05:14:50;96991.56;;;4.91;78.90
31357;BME280;60001;48.404;11.738;2024-02-21T05:16:21;96997.19;;;4.88;79.05
31357;BME280;60001;48.404;11.738;2024-02-21T05:17:52;96967.75;;;4.73;79.30
31357;BME280;60001;48.404;11.738;2024-02-21T05:19:24;96981.69;;;4.93;78.54
31357;BME280;60001;48.404;11.738;2024-02-21T05:20:55;96992.56;;;4.97;78.87
31357;BME280;60001;48.404;11.738;2024-02-21T05:22:27;96991.34;;;4.92;78.58
31357;BME280;60001;48.404;11.738;2024-02-21T05:23:57;96989.34;;;4.88;78.72
31357;BME280;60001;48.404;11.738;2024-02-21T05:25:30;96983.31;;;4.94;78.67
31357;BME280;60001;48.404;11.738;2024-02-21T05:27:04;96976.88;;;4.90;78.90
31357;BME280;60001;48.404;11.738;2024-02-21T05:28:36;96982.91;;;4.97;78.86
31357;BME280;60001;48.404;11.738;2024-02-21T05:30:08;96987.94;;;4.99;78.55
31357;BME280;60001;48.404;11.738;2024-02-21T05:31:55;96979.28;;;4.98;78.34
31357;BME280;60001;48.404;11.738;2024-02-21T05:33:27;96979.88;;;5.00;78.64
31357;BME280;60001;48.404;11.738;2024-02-21T05:34:59;96969.84;;;5.04;78.75
31357;BME280;60001;48.404;11.738;2024-02-21T05:36:30;96971.25;;;5.19;76.90
31357;BME280;60001;48.404;11.738;2024-02-21T05:38:02;96969.44;;;5.13;76.85
31357;BME280;60001;48.404;11.738;2024-02-21T05:39:37;96957.34;;;5.06;76.54
31357;BME280;60001;48.404;11.738;2024-02-21T05:41:08;96967.22;;;5.10;78.09
31357;BME280;60001;48.404;11.738;2024-02-21T05:42:41;96964.81;;;5.15;78.19
31357;BME280;60001;48.404;11.738;2024-02-21T05:44:12;96958.16;;;5.13;77.43
31357;BME280;60001;48.404;11.738;2024-02-21T05:45:43;96959.16;;;5.18;77.64
31357;BME280;60001;48.404;11.738;2024-02-21T05:47:15;96960.78;;;5.13;77.86
31357;BME280;60001;48.404;11.738;2024-02-21T05:48:46;96951.91;;;5.20;77.51
31357;BME280;60001;48.404;11.738;2024-02-21T05:50:18;96947.47;;;5.14;77.47
31357;BME280;60001;48.404;11.738;2024-02-21T05:51:48;96949.91;;;5.22;77.24
31357;BME280;60001;48.404;11.738;2024-02-21T05:53:20;96950.50;;;5.25;76.54
31357;BME280;60001;48.404;11.738;2024-02-21T05:54:51;96943.69;;;5.30;76.27
31357;BME280;60001;48.404;11.738;2024-02-21T05:56:23;96947.09;;;5.24;76.32
31357;BME280;60001;48.404;11.738;2024-02-21T05:57:55;96955.16;;;5.22;76.57
31357;BME280;60001;48.404;11.738;2024-02-21T05:59:27;96943.25;;;5.27;76.73
31357;BME280;60001;48.404;11.738;2024-02-21T06:00:57;96942.88;;;5.30;77.15
31357;BME280;60001;48.404;11.738;2024-02-21T06:02:29;96950.94;;;5.21;77.41
31357;BME280;60001;48.404;11.738;2024-02-21T06:04:04;96944.47;;;5.17;77.85
31357;BME280;60001;48.404;11.738;2024-02-21T06:05:37;96941.44;;;5.20;77.44
31357;BME280;60001;48.404;11.738;2024-02-21T06:07:09;96943.88;;;5.15;77.33
31357;BME280;60001;48.404;11.738;2024-02-21T06:08:40;96933.78;;;5.19;76.27
31357;BME280;60001;48.404;11.738;2024-02-21T06:10:11;96935.81;;;5.23;76.67
31357;BME280;60001;48.404;11.738;2024-02-21T06:11:44;96917.69;;;5.15;76.54
31357;BME280;60001;48.404;11.738;2024-02-21T06:13:18;96937.22;;;5.19;77.30
31357;BME280;60001;48.404;11.738;2024-02-21T06:14:52;96932.59;;;5.08;76.88
31357;BME280;60001;48.404;11.738;2024-02-21T06:16:22;96943.47;;;5.12;77.21
31357;BME280;60001;48.404;11.738;2024-02-21T06:17:54;96941.44;;;5.14;77.28
31357;BME280;60001;48.404;11.738;2024-02-21T06:19:26;96938.22;;;5.12;77.10
31357;BME280;60001;48.404;11.738;2024-02-21T06:20:57;96935.59;;;5.05;77.41
31357;BME280;60001;48.404;11.738;2024-02-21T06:22:30;96939.81;;;5.06;77.32
31357;BME280;60001;48.404;11.738;2024-02-21T06:24:01;96931.78;;;5.01;77.15
31357;BME280;60001;48.404;11.738;2024-02-21T06:25:33;96935.41;;;5.00;77.57
31357;BME280;60001;48.404;11.738;2024-02-21T06:27:06;96935.81;;;5.10;76.53
31357;BME280;60001;48.404;11.738;2024-02-21T06:28:38;96924.94;;;5.07;76.90
31357;BME280;60001;48.404;11.738;2024-02-21T06:30:11;96925.13;;;5.05;76.67
31357;BME280;60001;48.404;11.738;2024-02-21T06:31:42;96920.91;;;5.04;77.02
31357;BME280;60001;48.404;11.738;2024-02-21T06:33:13;96922.72;;;5.10;76.30
31357;BME280;60001;48.404;11.738;2024-02-21T06:34:44;96934.41;;;5.08;76.56
31357;BME280;60001;48.404;11.738;2024-02-21T06:36:16;96927.75;;;5.05;76.84
31357;BME280;60001;48.404;11.738;2024-02-21T06:37:47;96932.59;;;5.08;75.87
31357;BME280;60001;48.404;11.738;2024-02-21T06:39:21;96931.97;;;5.13;75.61
31357;BME280;60001;48.404;11.738;2024-02-21T06:40:53;96939.22;;;5.11;75.66
31357;BME280;60001;48.404;11.738;2024-02-21T06:42:25;96931.19;;;5.19;75.57
31357;BME280;60001;48.404;11.738;2024-02-21T06:43:57;96935.00;;;5.36;74.89
31357;BME280;60001;48.404;11.738;2024-02-21T06:45:29;96944.69;;;5.36;74.61
31357;BME280;60001;48.404;11.738;2024-02-21T06:47:00;96938.81;;;5.34;74.18
31357;BME280;60001;48.404;11.738;2024-02-21T06:48:32;96936.41;;;5.39;74.61
31357;BME280;60001;48.404;11.738;2024-02-21T06:50:04;96923.53;;;5.31;74.11
31357;BME280;60001;48.404;11.738;2024-02-21T06:51:36;96935.81;;;5.50;73.65
31357;BME280;60001;48.404;11.738;2024-02-21T06:53:08;96928.53;;;5.45;73.43
31357;BME280;60001;48.404;11.738;2024-02-21T06:54:39;96937.22;;;5.46;73.42
31357;BME280;60001;48.404;11.738;2024-02-21T06:56:10;96933.19;;;5.43;74.05
31357;BME280;60001;48.404;11.738;2024-02-21T06:57:41;96938.81;;;5.47;73.88
31357;BME280;60001;48.404;11.738;2024-02-21T06:59:14;96933.19;;;5.57;73.12
31357;BME280;60001;48.404;11.738;2024-02-21T07:00:46;96938.59;;;5.62;72.57
31357;BME280;60001;48.404;11.738;2024-02-21T07:02:18;96934.38;;;5.61;73.54
31357;BME280;60001;48.404;11.738;2024-02-21T07:03:49;96895.09;;;5.34;71.91
31357;BME280;60001;48.404;11.738;2024-02-21T07:05:21;96938.34;;;5.83;71.13
31357;BME280;60001;48.404;11.738;2024-02-21T07:06:53;96928.88;;;5.82;71.38
31357;BME280;60001;48.404;11.738;2024-02-21T07:08:23;96936.34;;;5.78;71.23
31357;BME280;60001;48.404;11.738;2024-02-21T07:09:55;96934.56;;;5.72;72.04
31357;BME280;60001;48.404;11.738;2024-02-21T07:11:26;96933.31;;;5.82;71.38
31357;BME280;60001;48.404;11.738;2024-02-21T07:12:58;96935.31;;;5.86;71.48
31357;BME280;60001;48.404;11.738;2024-02-21T07:14:32;96930.88;;;6.00;70.81
31357;BME280;60001;48.404;11.738;2024-02-21T07:16:04;96938.94;;;6.05;70.44
31357;BME280;60001;48.404;11.738;2024-02-21T07:17:35;96937.34;;;5.91;70.80
31357;BME280;60001;48.404;11.738;2024-02-21T07:19:07;96924.03;;;5.99;70.24
31357;BME280;60001;48.404;11.738;2024-02-21T07:20:38;96932.84;;;6.04;69.79
31357;BME280;60001;48.404;11.738;2024-02-21T07:22:11;96931.22;;;6.10;69.52
31357;BME280;60001;48.404;11.738;2024-02-21T07:23:42;96929.41;;;6.11;69.69
31357;BME280;60001;48.404;11.738;2024-02-21T07:25:14;96933.22;;;6.21;69.02
31357;BME280;60001;48.404;11.738;2024-02-21T07:26:45;96923.13;;;6.18;69.50
31357;BME280;60001;48.404;11.738;2024-02-21T07:28:18;96925.75;;;6.18;69.80
31357;BME280;60001;48.404;11.738;2024-02-21T07:29:51;96926.59;;;6.12;70.17
31357;BME280;60001;48.404;11.738;2024-02-21T07:31:22;96929.81;;;6.14;69.98
31357;BME280;60001;48.404;11.738;2024-02-21T07:32:55;96923.31;;;6.23;68.94
31357;BME280;60001;48.404;11.738;2024-02-21T07:34:26;96908.84;;;6.14;69.33
31357;BME280;60001;48.404;11.738;2024-02-21T07:35:58;96928.75;;;6.28;68.94
31357;BME280;60001;48.404;11.738;2024-02-21T07:37:30;96932.00;;;6.24;69.50
31357;BME280;60001;48.404;11.738;2024-02-21T07:39:04;96934.25;;;6.14;69.81
31357;BME280;60001;48.404;11.738;2024-02-21T07:40:38;96916.13;;;6.12;69.27
31357;BME280;60001;48.404;11.738;2024-02-21T07:42:09;96930.41;;;6.16;69.58
31357;BME280;60001;48.404;11.738;2024-02-21T07:43:41;96920.16;;;6.08;69.67
31357;BME280;60001;48.404;11.738;2024-02-21T07:45:13;96931.84;;;6.12;70.83
31357;BME280;60001;48.404;11.738;2024-02-21T07:46:45;96914.97;;;5.95;71.82
31357;BME280;60001;48.404;11.738;2024-02-21T07:48:16;96918.13;;;6.10;71.48
31357;BME280;60001;48.404;11.738;2024-02-21T07:49:49;96925.41;;;6.08;70.71
31357;BME280;60001;48.404;11.738;2024-02-21T07:51:20;96910.94;;;5.99;70.99
31357;BME280;60001;48.404;11.738;2024-02-21T07:52:52;96906.84;;;6.10;71.34
31357;BME280;60001;48.404;11.738;2024-02-21T07:54:23;96903.19;;;6.11;71.25
31357;BME280;60001;48.404;11.738;2024-02-21T07:55:54;96903.94;;;6.24;70.92
31357;BME280;60001;48.404;11.738;2024-02-21T07:57:26;96866.34;;;6.06;69.75
31357;BME280;60001;48.404;11.738;2024-02-21T07:58:57;96898.50;;;6.26;69.82
31357;BME280;60001;48.404;11.738;2024-02-21T08:00:30;96898.03;;;6.36;69.66
31357;BME280;60001;48.404;11.738;2024-02-21T08:02:02;96893.53;;;6.49;68.49
31357;BME280;60001;48.404;11.738;2024-02-21T08:03:37;96889.13;;;6.43;67.92
31357;BME280;60001;48.404;11.738;2024-02-21T08:05:08;96878.84;;;6.42;67.50
31357;BME280;60001;48.404;11.738;2024-02-21T08:06:39;96889.13;;;6.43;69.07